createdAt,value
2023-01-13T03:56:31.268Z,70.82
2023-01-13T04:01:30.495Z,71.33
2023-01-13T04:06:30.558Z,71.53
2023-01-13T04:11:30.440Z,71.46
2023-01-13T04:16:30.220Z,71.73
2023-01-13T04:21:30.179Z,71.53
2023-01-13T04:39:32.506Z,72.79
2023-01-13T04:44:32.258Z,72.24
2023-01-13T04:49:32.074Z,72.17
2023-01-13T04:54:31.904Z,73.33
2023-01-13T05:24:54.201Z,72.28
2023-01-13T05:29:53.662Z,72.24
2023-01-13T05:34:53.774Z,72.17
2023-01-13T05:39:53.533Z,71.19
2023-01-13T05:44:53.680Z,72.99
2023-01-13T05:49:53.410Z,72.55
2023-01-13T05:54:53.453Z,72.48
2023-01-13T05:59:53.217Z,71.50
2023-01-13T06:17:32.512Z,72.72
2023-01-13T06:22:32.247Z,71.46
2023-01-13T06:49:53.366Z,76.50
2023-01-13T06:54:53.296Z,80.44
2023-01-13T07:01:10.752Z,87.45
2023-01-13T07:11:28.358Z,89.00
2023-01-13T07:17:45.659Z,86.85
2023-01-13T07:22:45.569Z,86.46
2023-01-13T07:27:45.593Z,86.19
2023-01-13T07:32:45.508Z,85.99
2023-01-13T07:37:45.172Z,85.54
2023-01-13T07:42:45.049Z,84.76
2023-01-13T07:47:45.188Z,85.25
2023-01-13T07:52:45.162Z,84.68
2023-01-13T07:57:45.259Z,84.29
2023-01-13T08:02:45.019Z,83.17
2023-01-13T08:07:47.956Z,84.33
2023-01-13T08:12:51.945Z,85.44
2023-01-13T08:17:45.627Z,85.50
2023-01-13T08:22:44.697Z,83.72
2023-01-13T08:27:44.635Z,83.20
2023-01-13T08:32:44.415Z,83.37
2023-01-13T08:37:44.419Z,83.20
2023-01-13T08:42:45.219Z,82.87
2023-01-13T08:47:44.284Z,82.08
2023-01-13T08:52:44.460Z,82.76
2023-01-13T08:57:44.381Z,81.98
2023-01-13T09:02:44.193Z,81.36
2023-01-13T09:07:55.415Z,80.58
2023-01-13T09:12:57.593Z,82.26
2023-01-13T09:17:43.883Z,81.67
2023-01-13T09:22:43.950Z,82.32
2023-01-13T09:27:43.809Z,82.28
2023-01-13T09:32:43.745Z,80.30
2023-01-13T09:37:43.777Z,80.81
2023-01-13T09:42:43.597Z,78.15
2023-01-13T09:47:43.413Z,79.79
2023-01-13T09:52:43.403Z,78.87
2023-01-13T09:57:43.385Z,79.52
2023-01-13T10:02:43.358Z,79.62
2023-01-13T10:07:46.351Z,78.49
2023-01-13T10:12:43.218Z,79.75
2023-01-13T10:17:44.651Z,78.90
2023-01-13T10:22:42.995Z,77.33
2023-01-13T10:27:43.029Z,75.69
2023-01-13T10:32:43.091Z,75.31
2023-01-13T10:37:42.835Z,75.69
2023-01-13T10:42:42.942Z,76.17
2023-01-13T10:47:42.938Z,76.54
2023-01-13T10:52:49.984Z,74.32
2023-01-13T10:59:05.724Z,73.50
2023-01-13T11:05:23.594Z,72.78
2023-01-13T11:10:23.369Z,74.36
2023-01-13T11:15:23.319Z,72.11
2023-01-13T11:20:23.144Z,70.98
2023-01-13T11:25:24.789Z,70.10
2023-01-13T11:30:23.047Z,69.76
2023-01-13T11:35:22.998Z,68.26
2023-01-13T11:40:22.897Z,68.43
2023-01-13T11:45:22.909Z,66.80
2023-01-13T11:50:22.765Z,67.51
2023-01-13T11:55:25.775Z,65.84
2023-01-13T12:00:30.480Z,66.52
2023-01-13T12:07:01.745Z,63.70
2023-01-13T12:12:01.442Z,63.81
2023-01-13T12:17:09.721Z,63.44
2023-01-13T12:22:01.343Z,63.16
2023-01-13T12:27:01.431Z,63.40
2023-01-13T12:32:01.273Z,63.47
2023-01-13T12:37:01.131Z,65.28
2023-01-13T12:42:01.379Z,64.25
2023-01-13T12:47:01.039Z,62.87
2023-01-13T12:52:01.162Z,62.36
2023-01-13T12:57:03.901Z,64.53
2023-01-13T13:02:01.150Z,67.51
2023-01-13T13:07:00.834Z,75.38
2023-01-13T13:12:00.721Z,76.27
2023-01-13T13:17:00.769Z,75.48
2023-01-13T13:22:00.550Z,75.27
2023-01-13T13:27:02.595Z,71.22
2023-01-13T13:32:00.433Z,69.31
2023-01-13T13:37:00.586Z,66.35
2023-01-13T13:42:00.244Z,65.25
2023-01-13T13:47:00.254Z,62.98
2023-01-13T13:52:00.296Z,62.70
2023-01-13T13:57:03.140Z,63.69
2023-01-13T14:02:00.165Z,63.65
2023-01-13T14:07:07.939Z,60.55
2023-01-13T14:11:59.846Z,61.54
2023-01-13T14:16:59.804Z,60.80
2023-01-13T14:22:01.874Z,60.90
2023-01-13T14:27:07.607Z,61.75
2023-01-13T14:31:59.713Z,61.47
2023-01-13T14:36:59.521Z,60.69
2023-01-13T14:41:59.446Z,61.98
2023-01-13T14:46:59.591Z,61.98
2023-01-13T14:51:59.285Z,63.03
2023-01-13T14:57:02.225Z,61.60
2023-01-13T15:01:59.245Z,62.78
2023-01-13T15:06:59.082Z,62.24
2023-01-13T15:11:59.037Z,63.06
2023-01-13T15:16:58.935Z,63.81
2023-01-13T15:21:58.875Z,64.45
2023-01-13T15:26:58.803Z,64.07
2023-01-13T15:31:58.773Z,62.99
2023-01-13T15:36:58.848Z,63.87
2023-01-13T15:44:37.462Z,65.54
2023-01-13T15:49:37.235Z,64.92
2023-01-13T15:54:37.184Z,63.97
2023-01-13T15:59:37.025Z,65.41
2023-01-13T16:04:37.047Z,64.17
2023-01-13T16:09:36.917Z,64.65
2023-01-13T16:15:32.799Z,64.83
2023-01-13T16:20:33.176Z,65.75
2023-01-13T16:25:32.696Z,66.53
2023-01-13T16:30:32.714Z,66.33
2023-01-13T16:37:32.981Z,65.92
2023-01-13T16:48:21.434Z,67.79
2023-01-13T16:53:28.234Z,68.17
2023-01-13T18:51:21.386Z,67.94
2023-01-13T18:56:20.399Z,68.99
2023-01-13T19:01:20.730Z,68.17
2023-01-13T19:06:20.122Z,68.92
2023-01-13T19:11:20.210Z,69.33
2023-01-13T19:16:20.119Z,69.95
2023-01-13T19:21:20.093Z,70.46
2023-01-13T19:27:41.027Z,69.81
2023-01-13T19:32:39.513Z,71.18
2023-01-13T19:37:39.195Z,70.87
2023-01-13T19:42:39.124Z,70.73
2023-01-13T19:47:39.175Z,70.87
2023-01-13T19:52:38.909Z,71.18
2023-01-13T19:57:39.982Z,71.08
2023-01-13T20:02:38.911Z,72.58
2023-01-13T20:07:46.727Z,71.59
2023-01-13T20:14:18.355Z,71.52
2023-01-13T20:21:09.189Z,71.86
2023-01-13T20:26:09.042Z,73.23
2023-01-13T20:31:09.278Z,72.41
2023-01-13T20:36:09.010Z,73.23
2023-01-13T20:41:08.831Z,72.72
2023-01-13T20:46:08.890Z,72.03
2023-01-13T20:51:08.674Z,72.38
2023-01-13T20:56:08.872Z,72.27
2023-01-13T21:01:10.830Z,71.72
2023-01-13T21:06:08.531Z,70.36
2023-01-13T21:11:11.395Z,71.42
2023-01-13T21:16:08.319Z,72.24
2023-01-13T21:21:08.332Z,70.26
2023-01-13T21:42:40.917Z,71.76
2023-01-13T21:47:40.948Z,71.21
2023-01-13T21:52:40.827Z,70.56
2023-01-13T21:57:40.972Z,71.86
2023-01-13T22:02:40.949Z,71.11
2023-01-13T22:07:40.593Z,71.76
2023-01-13T22:12:40.490Z,72.72
2023-01-13T22:17:40.575Z,71.76
2023-01-13T22:22:40.475Z,72.31
2023-01-13T22:27:40.339Z,73.36
2023-01-13T22:32:43.235Z,73.50
2023-01-13T22:37:40.312Z,74.46
2023-01-13T22:42:40.099Z,71.69
2023-01-13T22:52:26.018Z,71.75
2023-01-13T22:57:25.683Z,70.70
2023-01-13T23:02:25.713Z,70.25
2023-01-13T23:07:25.743Z,70.39
2023-01-13T23:14:31.501Z,69.12
2023-01-13T23:19:30.845Z,70.73
2023-01-13T23:24:31.056Z,70.08
2023-01-13T23:29:30.682Z,70.18
2023-01-13T23:34:30.712Z,69.53
2023-01-13T23:39:30.500Z,69.53
2023-01-13T23:44:30.548Z,68.24
2023-01-13T23:49:30.436Z,68.91
2023-01-13T23:54:30.434Z,69.53
2023-01-13T23:59:30.395Z,69.15
